Scio Township, Michigan
Current Conditions -  °F | °C
As of 4:15 AM on Friday 24 Oct 2014 (Local Time) from KARB Reporting Station
Haze Haze  
Wind Chill: 29°   Ceiling: Unl
Heat Index: 29°   Visibility: 0.75mi
Dew Point: 25°   Wind: 0mph
Humidity: 85%   Direction: NA
Pressure: 30.08"   Gusts: NA
Location:  42.2601°N, 83.8448°W
Report Text: KARB 240815Z AUTO 00000KT 3/4SM BR CLR M02/M04 A3008 RMK AO2 VIS 1/2V2 T10171039
Loading
Personal Weather Stations






























Interactive Weather Map
Tropical Storm Tracking
New forecast layout! Learn more

10-Day Weather Forecast

Advertisements
Track Severe Weather on mobile